sensor_id;sensor_type;location;lat;lon;timestamp;P1;durP1;ratioP1;P2;durP2;ratioP2
65759;SDS011;52496;51.082;5.066;2022-08-19T00:00:27;14.20;;;10.68;;
65759;SDS011;52496;51.082;5.066;2022-08-19T00:02:57;15.52;;;10.60;;
65759;SDS011;52496;51.082;5.066;2022-08-19T00:05:28;15.40;;;10.98;;
65759;SDS011;52496;51.082;5.066;2022-08-19T00:07:58;12.05;;;9.40;;
65759;SDS011;52496;51.082;5.066;2022-08-19T00:10:29;14.40;;;9.13;;
65759;SDS011;52496;51.082;5.066;2022-08-19T00:12:59;16.05;;;9.23;;
65759;SDS011;52496;51.082;5.066;2022-08-19T00:15:30;12.95;;;8.95;;
65759;SDS011;52496;51.082;5.066;2022-08-19T00:18:00;22.27;;;12.10;;
65759;SDS011;52496;51.082;5.066;2022-08-19T00:20:31;17.10;;;11.70;;
65759;SDS011;52496;51.082;5.066;2022-08-19T00:23:01;14.18;;;10.18;;
65759;SDS011;52496;51.082;5.066;2022-08-19T00:25:34;13.13;;;9.77;;
65759;SDS011;52496;51.082;5.066;2022-08-19T00:28:04;16.77;;;10.07;;
65759;SDS011;52496;51.082;5.066;2022-08-19T00:30:35;18.55;;;12.50;;
65759;SDS011;52496;51.082;5.066;2022-08-19T00:33:06;21.67;;;13.18;;
65759;SDS011;52496;51.082;5.066;2022-08-19T00:35:38;18.63;;;12.70;;
65759;SDS011;52496;51.082;5.066;2022-08-19T00:38:08;18.50;;;12.98;;
65759;SDS011;52496;51.082;5.066;2022-08-19T00:40:38;19.08;;;12.45;;
65759;SDS011;52496;51.082;5.066;2022-08-19T00:43:09;16.17;;;11.95;;
65759;SDS011;52496;51.082;5.066;2022-08-19T00:45:43;19.42;;;13.57;;
65759;SDS011;52496;51.082;5.066;2022-08-19T00:48:14;18.95;;;11.52;;
65759;SDS011;52496;51.082;5.066;2022-08-19T00:50:47;16.52;;;10.95;;
65759;SDS011;52496;51.082;5.066;2022-08-19T00:53:20;18.95;;;13.05;;
65759;SDS011;52496;51.082;5.066;2022-08-19T00:55:53;19.95;;;13.18;;
65759;SDS011;52496;51.082;5.066;2022-08-19T00:58:27;22.00;;;13.60;;
65759;SDS011;52496;51.082;5.066;2022-08-19T01:01:00;22.20;;;15.70;;
65759;SDS011;52496;51.082;5.066;2022-08-19T01:03:32;22.42;;;14.98;;
65759;SDS011;52496;51.082;5.066;2022-08-19T01:06:02;21.13;;;13.40;;
65759;SDS011;52496;51.082;5.066;2022-08-19T01:08:33;22.98;;;14.88;;
65759;SDS011;52496;51.082;5.066;2022-08-19T01:11:03;22.38;;;14.75;;
65759;SDS011;52496;51.082;5.066;2022-08-19T01:13:34;20.92;;;12.75;;
65759;SDS011;52496;51.082;5.066;2022-08-19T01:16:09;18.30;;;13.07;;
65759;SDS011;52496;51.082;5.066;2022-08-19T01:18:42;19.27;;;12.75;;
65759;SDS011;52496;51.082;5.066;2022-08-19T01:21:24;27.35;;;15.95;;
65759;SDS011;52496;51.082;5.066;2022-08-19T01:24:07;20.42;;;14.40;;
65759;SDS011;52496;51.082;5.066;2022-08-19T01:26:39;21.57;;;14.47;;
65759;SDS011;52496;51.082;5.066;2022-08-19T01:29:12;26.55;;;16.17;;
65759;SDS011;52496;51.082;5.066;2022-08-19T01:31:43;28.52;;;16.35;;
65759;SDS011;52496;51.082;5.066;2022-08-19T01:34:14;32.17;;;17.83;;
65759;SDS011;52496;51.082;5.066;2022-08-19T01:36:45;27.25;;;15.68;;
65759;SDS011;52496;51.082;5.066;2022-08-19T01:39:18;26.85;;;15.32;;
65759;SDS011;52496;51.082;5.066;2022-08-19T01:41:50;27.67;;;17.00;;
65759;SDS011;52496;51.082;5.066;2022-08-19T01:44:24;26.83;;;15.93;;
65759;SDS011;52496;51.082;5.066;2022-08-19T01:46:55;27.38;;;17.50;;
65759;SDS011;52496;51.082;5.066;2022-08-19T01:49:25;28.90;;;17.10;;
65759;SDS011;52496;51.082;5.066;2022-08-19T01:51:56;32.35;;;16.90;;
65759;SDS011;52496;51.082;5.066;2022-08-19T01:54:29;29.85;;;16.73;;
65759;SDS011;52496;51.082;5.066;2022-08-19T01:57:01;30.67;;;17.60;;
65759;SDS011;52496;51.082;5.066;2022-08-19T01:59:34;25.95;;;15.45;;
65759;SDS011;52496;51.082;5.066;2022-08-19T02:02:06;29.00;;;16.55;;
65759;SDS011;52496;51.082;5.066;2022-08-19T02:04:39;33.85;;;18.50;;
65759;SDS011;52496;51.082;5.066;2022-08-19T02:07:10;25.88;;;16.42;;
65759;SDS011;52496;51.082;5.066;2022-08-19T02:09:40;28.33;;;17.15;;
65759;SDS011;52496;51.082;5.066;2022-08-19T02:12:11;33.80;;;17.55;;
65759;SDS011;52496;51.082;5.066;2022-08-19T02:14:41;31.15;;;18.63;;
65759;SDS011;52496;51.082;5.066;2022-08-19T02:17:12;32.35;;;17.08;;
65759;SDS011;52496;51.082;5.066;2022-08-19T02:19:43;31.92;;;16.92;;
65759;SDS011;52496;51.082;5.066;2022-08-19T02:22:13;31.52;;;18.23;;
65759;SDS011;52496;51.082;5.066;2022-08-19T02:24:43;30.10;;;18.40;;
65759;SDS011;52496;51.082;5.066;2022-08-19T02:27:14;40.38;;;20.77;;
65759;SDS011;52496;51.082;5.066;2022-08-19T02:29:45;38.75;;;20.42;;
65759;SDS011;52496;51.082;5.066;2022-08-19T02:32:17;37.15;;;19.95;;
65759;SDS011;52496;51.082;5.066;2022-08-19T02:34:51;38.90;;;20.83;;
65759;SDS011;52496;51.082;5.066;2022-08-19T02:37:21;44.33;;;23.27;;
65759;SDS011;52496;51.082;5.066;2022-08-19T02:40:10;46.88;;;23.33;;
65759;SDS011;52496;51.082;5.066;2022-08-19T02:42:41;48.22;;;22.05;;
65759;SDS011;52496;51.082;5.066;2022-08-19T02:45:13;38.22;;;20.35;;
65759;SDS011;52496;51.082;5.066;2022-08-19T02:47:44;49.40;;;24.98;;
65759;SDS011;52496;51.082;5.066;2022-08-19T02:50:15;40.63;;;22.60;;
65759;SDS011;52496;51.082;5.066;2022-08-19T02:52:45;49.25;;;25.15;;
65759;SDS011;52496;51.082;5.066;2022-08-19T02:55:16;51.03;;;24.02;;
65759;SDS011;52496;51.082;5.066;2022-08-19T02:57:46;56.30;;;27.90;;
65759;SDS011;52496;51.082;5.066;2022-08-19T03:00:17;62.50;;;28.65;;
65759;SDS011;52496;51.082;5.066;2022-08-19T03:02:48;53.58;;;28.45;;
65759;SDS011;52496;51.082;5.066;2022-08-19T03:05:18;53.05;;;28.38;;
65759;SDS011;52496;51.082;5.066;2022-08-19T03:07:49;74.65;;;31.05;;
65759;SDS011;52496;51.082;5.066;2022-08-19T03:10:20;68.63;;;29.85;;
65759;SDS011;52496;51.082;5.066;2022-08-19T03:12:50;66.90;;;30.27;;
65759;SDS011;52496;51.082;5.066;2022-08-19T03:15:20;63.38;;;30.13;;
65759;SDS011;52496;51.082;5.066;2022-08-19T03:17:51;49.13;;;25.77;;
65759;SDS011;52496;51.082;5.066;2022-08-19T03:20:21;69.38;;;31.50;;
65759;SDS011;52496;51.082;5.066;2022-08-19T03:22:52;60.55;;;28.27;;
65759;SDS011;52496;51.082;5.066;2022-08-19T03:25:22;62.20;;;29.67;;
65759;SDS011;52496;51.082;5.066;2022-08-19T03:27:52;59.75;;;28.70;;
65759;SDS011;52496;51.082;5.066;2022-08-19T03:30:23;52.15;;;26.85;;
65759;SDS011;52496;51.082;5.066;2022-08-19T03:32:53;55.38;;;27.27;;
65759;SDS011;52496;51.082;5.066;2022-08-19T03:35:24;47.97;;;24.33;;
65759;SDS011;52496;51.082;5.066;2022-08-19T03:37:54;53.30;;;26.52;;
65759;SDS011;52496;51.082;5.066;2022-08-19T03:40:26;56.00;;;25.13;;
65759;SDS011;52496;51.082;5.066;2022-08-19T03:42:56;51.55;;;24.00;;
65759;SDS011;52496;51.082;5.066;2022-08-19T03:45:27;50.50;;;25.27;;
65759;SDS011;52496;51.082;5.066;2022-08-19T03:47:57;55.45;;;26.40;;
65759;SDS011;52496;51.082;5.066;2022-08-19T03:50:28;50.10;;;23.17;;
65759;SDS011;52496;51.082;5.066;2022-08-19T03:52:58;48.30;;;24.90;;
65759;SDS011;52496;51.082;5.066;2022-08-19T03:55:29;52.47;;;26.17;;
65759;SDS011;52496;51.082;5.066;2022-08-19T03:57:59;56.90;;;25.98;;
65759;SDS011;52496;51.082;5.066;2022-08-19T04:00:29;52.63;;;26.42;;
65759;SDS011;52496;51.082;5.066;2022-08-19T04:03:00;44.47;;;22.80;;
65759;SDS011;52496;51.082;5.066;2022-08-19T04:05:30;39.90;;;20.35;;
65759;SDS011;52496;51.082;5.066;2022-08-19T04:08:01;41.65;;;20.42;;
65759;SDS011;52496;51.082;5.066;2022-08-19T04:10:38;42.45;;;21.00;;
65759;SDS011;52496;51.082;5.066;2022-08-19T04:13:10;43.85;;;22.02;;
65759;SDS011;52496;51.082;5.066;2022-08-19T04:15:41;47.75;;;22.55;;
65759;SDS011;52496;51.082;5.066;2022-08-19T04:18:14;50.55;;;23.25;;
65759;SDS011;52496;51.082;5.066;2022-08-19T04:20:45;48.65;;;22.15;;
65759;SDS011;52496;51.082;5.066;2022-08-19T04:23:17;51.50;;;22.52;;
65759;SDS011;52496;51.082;5.066;2022-08-19T04:25:48;44.00;;;20.45;;
65759;SDS011;52496;51.082;5.066;2022-08-19T04:28:19;50.75;;;22.13;;
65759;SDS011;52496;51.082;5.066;2022-08-19T04:30:50;58.05;;;23.98;;
65759;SDS011;52496;51.082;5.066;2022-08-19T04:33:23;60.15;;;23.85;;
65759;SDS011;52496;51.082;5.066;2022-08-19T04:35:55;57.90;;;26.00;;
65759;SDS011;52496;51.082;5.066;2022-08-19T04:38:26;56.22;;;25.00;;
65759;SDS011;52496;51.082;5.066;2022-08-19T04:40:57;66.50;;;28.25;;
65759;SDS011;52496;51.082;5.066;2022-08-19T04:43:46;70.90;;;30.95;;
65759;SDS011;52496;51.082;5.066;2022-08-19T04:46:20;79.22;;;32.90;;
65759;SDS011;52496;51.082;5.066;2022-08-19T04:48:50;78.40;;;31.77;;
65759;SDS011;52496;51.082;5.066;2022-08-19T04:51:21;81.32;;;31.70;;
65759;SDS011;52496;51.082;5.066;2022-08-19T04:53:51;73.68;;;30.58;;
65759;SDS011;52496;51.082;5.066;2022-08-19T04:56:22;83.28;;;34.45;;
65759;SDS011;52496;51.082;5.066;2022-08-19T04:58:56;77.90;;;32.38;;
65759;SDS011;52496;51.082;5.066;2022-08-19T05:01:28;83.38;;;31.92;;
65759;SDS011;52496;51.082;5.066;2022-08-19T05:04:00;75.70;;;31.38;;
65759;SDS011;52496;51.082;5.066;2022-08-19T05:06:31;79.38;;;31.38;;
65759;SDS011;52496;51.082;5.066;2022-08-19T05:09:04;66.88;;;29.48;;
65759;SDS011;52496;51.082;5.066;2022-08-19T05:11:35;70.80;;;31.52;;
65759;SDS011;52496;51.082;5.066;2022-08-19T05:14:09;62.45;;;27.85;;
65759;SDS011;52496;51.082;5.066;2022-08-19T05:16:42;75.70;;;30.35;;
65759;SDS011;52496;51.082;5.066;2022-08-19T05:19:13;60.55;;;26.77;;
65759;SDS011;52496;51.082;5.066;2022-08-19T05:22:02;66.88;;;27.35;;
65759;SDS011;52496;51.082;5.066;2022-08-19T05:24:51;58.45;;;26.05;;
65759;SDS011;52496;51.082;5.066;2022-08-19T05:27:21;62.25;;;26.30;;
65759;SDS011;52496;51.082;5.066;2022-08-19T05:29:52;56.30;;;24.70;;
65759;SDS011;52496;51.082;5.066;2022-08-19T05:32:22;53.42;;;24.67;;
65759;SDS011;52496;51.082;5.066;2022-08-19T05:34:53;53.05;;;23.73;;
65759;SDS011;52496;51.082;5.066;2022-08-19T05:37:23;51.50;;;24.88;;
65759;SDS011;52496;51.082;5.066;2022-08-19T05:39:56;51.13;;;24.25;;
65759;SDS011;52496;51.082;5.066;2022-08-19T05:42:27;50.53;;;23.98;;
65759;SDS011;52496;51.082;5.066;2022-08-19T05:44:57;49.80;;;22.67;;
65759;SDS011;52496;51.082;5.066;2022-08-19T05:47:28;45.90;;;21.45;;
65759;SDS011;52496;51.082;5.066;2022-08-19T05:49:58;46.97;;;21.95;;
65759;SDS011;52496;51.082;5.066;2022-08-19T05:52:29;48.20;;;20.75;;
65759;SDS011;52496;51.082;5.066;2022-08-19T05:55:00;49.72;;;21.88;;
65759;SDS011;52496;51.082;5.066;2022-08-19T05:57:30;39.20;;;20.60;;
65759;SDS011;52496;51.082;5.066;2022-08-19T06:00:01;42.45;;;21.42;;
65759;SDS011;52496;51.082;5.066;2022-08-19T06:02:32;41.33;;;19.95;;
65759;SDS011;52496;51.082;5.066;2022-08-19T06:05:03;43.55;;;21.33;;
65759;SDS011;52496;51.082;5.066;2022-08-19T06:07:39;44.40;;;19.98;;
65759;SDS011;52496;51.082;5.066;2022-08-19T06:10:10;38.53;;;19.98;;
65759;SDS011;52496;51.082;5.066;2022-08-19T06:12:41;35.15;;;18.55;;
65759;SDS011;52496;51.082;5.066;2022-08-19T06:15:12;35.63;;;18.80;;
65759;SDS011;52496;51.082;5.066;2022-08-19T06:17:44;39.65;;;19.33;;
65759;SDS011;52496;51.082;5.066;2022-08-19T06:20:14;37.03;;;18.38;;
65759;SDS011;52496;51.082;5.066;2022-08-19T06:22:45;35.60;;;16.88;;
65759;SDS011;52496;51.082;5.066;2022-08-19T06:25:19;30.63;;;16.83;;
65759;SDS011;52496;51.082;5.066;2022-08-19T06:27:50;34.17;;;16.00;;
65759;SDS011;52496;51.082;5.066;2022-08-19T06:30:20;27.15;;;15.60;;
65759;SDS011;52496;51.082;5.066;2022-08-19T06:32:51;29.33;;;16.00;;
65759;SDS011;52496;51.082;5.066;2022-08-19T06:35:21;30.60;;;16.55;;
65759;SDS011;52496;51.082;5.066;2022-08-19T06:37:52;31.48;;;16.25;;
65759;SDS011;52496;51.082;5.066;2022-08-19T06:40:22;29.48;;;14.55;;
65759;SDS011;52496;51.082;5.066;2022-08-19T06:42:53;30.58;;;14.52;;
65759;SDS011;52496;51.082;5.066;2022-08-19T06:45:23;27.67;;;14.32;;
65759;SDS011;52496;51.082;5.066;2022-08-19T06:47:54;22.10;;;12.85;;
65759;SDS011;52496;51.082;5.066;2022-08-19T06:50:25;22.15;;;12.88;;
65759;SDS011;52496;51.082;5.066;2022-08-19T06:52:56;26.10;;;13.18;;
65759;SDS011;52496;51.082;5.066;2022-08-19T06:55:26;22.08;;;12.02;;
65759;SDS011;52496;51.082;5.066;2022-08-19T06:58:01;22.52;;;12.10;;
65759;SDS011;52496;51.082;5.066;2022-08-19T07:00:32;26.80;;;12.30;;
65759;SDS011;52496;51.082;5.066;2022-08-19T07:03:03;19.33;;;11.60;;
65759;SDS011;52496;51.082;5.066;2022-08-19T07:05:38;19.85;;;11.02;;
65759;SDS011;52496;51.082;5.066;2022-08-19T07:08:09;22.58;;;10.75;;
65759;SDS011;52496;51.082;5.066;2022-08-19T07:10:44;19.33;;;9.85;;
65759;SDS011;52496;51.082;5.066;2022-08-19T07:13:15;21.70;;;10.48;;
65759;SDS011;52496;51.082;5.066;2022-08-19T07:15:46;21.50;;;9.80;;
65759;SDS011;52496;51.082;5.066;2022-08-19T07:18:20;24.67;;;10.88;;
65759;SDS011;52496;51.082;5.066;2022-08-19T07:20:51;16.90;;;10.40;;
65759;SDS011;52496;51.082;5.066;2022-08-19T07:23:37;17.02;;;9.48;;
65759;SDS011;52496;51.082;5.066;2022-08-19T07:26:09;20.60;;;9.80;;
65759;SDS011;52496;51.082;5.066;2022-08-19T07:29:00;21.80;;;9.18;;
65759;SDS011;52496;51.082;5.066;2022-08-19T07:31:31;15.00;;;8.02;;
65759;SDS011;52496;51.082;5.066;2022-08-19T07:34:06;17.60;;;9.02;;
65759;SDS011;52496;51.082;5.066;2022-08-19T07:36:39;17.33;;;8.75;;
65759;SDS011;52496;51.082;5.066;2022-08-19T07:39:13;16.50;;;8.52;;
65759;SDS011;52496;51.082;5.066;2022-08-19T07:41:45;13.02;;;7.22;;
65759;SDS011;52496;51.082;5.066;2022-08-19T07:44:17;14.25;;;8.27;;
65759;SDS011;52496;51.082;5.066;2022-08-19T07:46:51;15.90;;;8.93;;
65759;SDS011;52496;51.082;5.066;2022-08-19T07:49:23;16.25;;;8.27;;
65759;SDS011;52496;51.082;5.066;2022-08-19T07:51:55;18.05;;;7.95;;
65759;SDS011;52496;51.082;5.066;2022-08-19T07:54:32;14.18;;;7.47;;
65759;SDS011;52496;51.082;5.066;2022-08-19T07:57:04;18.67;;;7.75;;
65759;SDS011;52496;51.082;5.066;2022-08-19T07:59:35;18.98;;;8.30;;
65759;SDS011;52496;51.082;5.066;2022-08-19T08:02:06;16.80;;;8.13;;
65759;SDS011;52496;51.082;5.066;2022-08-19T08:04:38;14.13;;;6.93;;
65759;SDS011;52496;51.082;5.066;2022-08-19T08:07:27;15.35;;;6.95;;
65759;SDS011;52496;51.082;5.066;2022-08-19T08:10:16;17.60;;;7.30;;
65759;SDS011;52496;51.082;5.066;2022-08-19T08:12:46;11.65;;;6.95;;
65759;SDS011;52496;51.082;5.066;2022-08-19T08:15:17;16.40;;;7.28;;
65759;SDS011;52496;51.082;5.066;2022-08-19T08:17:48;15.18;;;6.95;;
65759;SDS011;52496;51.082;5.066;2022-08-19T08:20:19;16.30;;;7.90;;
65759;SDS011;52496;51.082;5.066;2022-08-19T08:22:49;17.83;;;7.95;;
65759;SDS011;52496;51.082;5.066;2022-08-19T08:25:39;13.25;;;6.95;;
65759;SDS011;52496;51.082;5.066;2022-08-19T08:28:09;15.27;;;7.55;;
65759;SDS011;52496;51.082;5.066;2022-08-19T08:30:40;14.73;;;6.90;;
65759;SDS011;52496;51.082;5.066;2022-08-19T08:33:13;13.43;;;6.47;;
65759;SDS011;52496;51.082;5.066;2022-08-19T08:35:47;12.35;;;6.60;;
65759;SDS011;52496;51.082;5.066;2022-08-19T08:38:18;14.20;;;7.20;;
65759;SDS011;52496;51.082;5.066;2022-08-19T08:40:50;14.82;;;5.90;;
65759;SDS011;52496;51.082;5.066;2022-08-19T08:43:32;17.08;;;6.38;;
65759;SDS011;52496;51.082;5.066;2022-08-19T08:46:08;12.50;;;6.93;;
65759;SDS011;52496;51.082;5.066;2022-08-19T08:51:48;11.93;;;5.95;;
65759;SDS011;52496;51.082;5.066;2022-08-19T08:54:43;8.80;;;5.40;;
65759;SDS011;52496;51.082;5.066;2022-08-19T08:57:21;11.05;;;5.05;;
65759;SDS011;52496;51.082;5.066;2022-08-19T09:00:08;10.63;;;5.45;;
65759;SDS011;52496;51.082;5.066;2022-08-19T09:02:44;10.55;;;5.53;;
65759;SDS011;52496;51.082;5.066;2022-08-19T09:05:14;9.52;;;5.15;;
65759;SDS011;52496;51.082;5.066;2022-08-19T09:07:49;7.78;;;4.50;;
65759;SDS011;52496;51.082;5.066;2022-08-19T09:10:52;8.63;;;4.95;;
65759;SDS011;52496;51.082;5.066;2022-08-19T09:13:34;8.18;;;4.47;;
65759;SDS011;52496;51.082;5.066;2022-08-19T09:16:32;10.27;;;5.18;;
65759;SDS011;52496;51.082;5.066;2022-08-19T09:19:05;9.82;;;5.30;;
65759;SDS011;52496;51.082;5.066;2022-08-19T09:21:36;8.05;;;4.88;;
65759;SDS011;52496;51.082;5.066;2022-08-19T09:24:08;10.35;;;5.55;;
65759;SDS011;52496;51.082;5.066;2022-08-19T09:26:39;8.43;;;4.53;;
65759;SDS011;52496;51.082;5.066;2022-08-19T09:29:09;8.38;;;4.60;;
65759;SDS011;52496;51.082;5.066;2022-08-19T09:31:40;8.15;;;5.13;;
65759;SDS011;52496;51.082;5.066;2022-08-19T09:34:10;8.23;;;5.07;;
65759;SDS011;52496;51.082;5.066;2022-08-19T09:36:41;8.00;;;4.50;;
65759;SDS011;52496;51.082;5.066;2022-08-19T09:39:11;10.10;;;5.03;;
65759;SDS011;52496;51.082;5.066;2022-08-19T09:41:42;8.55;;;4.90;;
65759;SDS011;52496;51.082;5.066;2022-08-19T09:44:12;6.90;;;4.68;;
65759;SDS011;52496;51.082;5.066;2022-08-19T09:46:43;8.52;;;5.20;;
65759;SDS011;52496;51.082;5.066;2022-08-19T09:49:13;8.52;;;4.80;;
65759;SDS011;52496;51.082;5.066;2022-08-19T09:51:44;9.52;;;4.63;;
65759;SDS011;52496;51.082;5.066;2022-08-19T09:54:18;8.82;;;4.90;;
65759;SDS011;52496;51.082;5.066;2022-08-19T09:56:49;8.65;;;4.75;;
65759;SDS011;52496;51.082;5.066;2022-08-19T09:59:20;8.43;;;4.85;;
65759;SDS011;52496;51.082;5.066;2022-08-19T10:01:51;7.20;;;4.80;;
65759;SDS011;52496;51.082;5.066;2022-08-19T10:04:22;11.90;;;4.78;;
65759;SDS011;52496;51.082;5.066;2022-08-19T10:06:55;8.05;;;4.45;;
65759;SDS011;52496;51.082;5.066;2022-08-19T10:09:25;7.80;;;4.68;;
65759;SDS011;52496;51.082;5.066;2022-08-19T10:11:56;7.35;;;4.60;;
65759;SDS011;52496;51.082;5.066;2022-08-19T10:14:26;7.97;;;5.25;;
65759;SDS011;52496;51.082;5.066;2022-08-19T10:16:57;7.97;;;5.47;;
65759;SDS011;52496;51.082;5.066;2022-08-19T10:19:28;9.60;;;4.88;;
65759;SDS011;52496;51.082;5.066;2022-08-19T10:22:03;11.57;;;5.68;;
65759;SDS011;52496;51.082;5.066;2022-08-19T10:24:35;7.13;;;4.28;;
65759;SDS011;52496;51.082;5.066;2022-08-19T10:27:05;10.32;;;4.93;;
65759;SDS011;52496;51.082;5.066;2022-08-19T10:29:36;8.95;;;4.28;;
65759;SDS011;52496;51.082;5.066;2022-08-19T10:32:07;8.95;;;4.70;;
65759;SDS011;52496;51.082;5.066;2022-08-19T10:34:38;9.07;;;4.93;;
65759;SDS011;52496;51.082;5.066;2022-08-19T10:37:09;7.10;;;4.28;;
65759;SDS011;52496;51.082;5.066;2022-08-19T10:39:40;9.27;;;4.47;;
65759;SDS011;52496;51.082;5.066;2022-08-19T10:42:10;8.50;;;4.55;;
65759;SDS011;52496;51.082;5.066;2022-08-19T10:44:42;7.25;;;4.15;;
65759;SDS011;52496;51.082;5.066;2022-08-19T10:47:13;7.63;;;4.68;;
65759;SDS011;52496;51.082;5.066;2022-08-19T10:49:44;9.20;;;4.70;;
65759;SDS011;52496;51.082;5.066;2022-08-19T10:52:33;7.75;;;4.05;;
65759;SDS011;52496;51.082;5.066;2022-08-19T10:55:04;7.38;;;4.38;;
65759;SDS011;52496;51.082;5.066;2022-08-19T10:57:55;9.30;;;4.25;;
65759;SDS011;52496;51.082;5.066;2022-08-19T11:00:25;8.75;;;3.85;;
65759;SDS011;52496;51.082;5.066;2022-08-19T11:02:56;6.80;;;3.75;;
65759;SDS011;52496;51.082;5.066;2022-08-19T11:05:27;5.63;;;3.58;;
65759;SDS011;52496;51.082;5.066;2022-08-19T11:07:57;6.47;;;3.70;;
65759;SDS011;52496;51.082;5.066;2022-08-19T11:10:27;8.45;;;4.05;;
65759;SDS011;52496;51.082;5.066;2022-08-19T11:12:58;9.75;;;4.60;;
65759;SDS011;52496;51.082;5.066;2022-08-19T11:15:30;8.80;;;4.30;;
65759;SDS011;52496;51.082;5.066;2022-08-19T11:18:02;7.70;;;3.95;;
65759;SDS011;52496;51.082;5.066;2022-08-19T11:20:33;5.78;;;3.63;;
65759;SDS011;52496;51.082;5.066;2022-08-19T11:23:03;9.95;;;4.22;;
65759;SDS011;52496;51.082;5.066;2022-08-19T11:25:34;8.63;;;4.03;;
65759;SDS011;52496;51.082;5.066;2022-08-19T11:28:05;6.28;;;3.80;;
65759;SDS011;52496;51.082;5.066;2022-08-19T11:30:36;7.43;;;3.35;;
65759;SDS011;52496;51.082;5.066;2022-08-19T11:33:07;5.25;;;3.38;;
65759;SDS011;52496;51.082;5.066;2022-08-19T11:35:40;9.70;;;4.28;;
65759;SDS011;52496;51.082;5.066;2022-08-19T11:38:11;6.68;;;4.30;;
65759;SDS011;52496;51.082;5.066;2022-08-19T11:40:41;6.28;;;3.78;;
65759;SDS011;52496;51.082;5.066;2022-08-19T11:43:12;7.93;;;3.72;;
65759;SDS011;52496;51.082;5.066;2022-08-19T11:45:42;6.00;;;3.30;;
65759;SDS011;52496;51.082;5.066;2022-08-19T11:48:13;6.07;;;3.33;;
65759;SDS011;52496;51.082;5.066;2022-08-19T11:50:52;7.53;;;3.63;;
65759;SDS011;52496;51.082;5.066;2022-08-19T11:53:26;7.22;;;4.13;;
65759;SDS011;52496;51.082;5.066;2022-08-19T11:55:56;6.35;;;3.58;;
65759;SDS011;52496;51.082;5.066;2022-08-19T11:58:26;8.98;;;4.07;;
65759;SDS011;52496;51.082;5.066;2022-08-19T12:00:57;6.93;;;3.45;;
65759;SDS011;52496;51.082;5.066;2022-08-19T12:03:27;8.52;;;3.60;;
65759;SDS011;52496;51.082;5.066;2022-08-19T12:05:58;6.18;;;3.55;;
65759;SDS011;52496;51.082;5.066;2022-08-19T12:08:28;7.38;;;3.75;;
65759;SDS011;52496;51.082;5.066;2022-08-19T12:10:59;10.02;;;3.92;;
65759;SDS011;52496;51.082;5.066;2022-08-19T12:13:31;5.72;;;3.28;;
65759;SDS011;52496;51.082;5.066;2022-08-19T12:16:07;6.70;;;4.20;;
65759;SDS011;52496;51.082;5.066;2022-08-19T12:18:41;7.28;;;3.63;;
65759;SDS011;52496;51.082;5.066;2022-08-19T12:21:17;8.55;;;3.55;;
65759;SDS011;52496;51.082;5.066;2022-08-19T12:23:51;5.85;;;4.13;;
65759;SDS011;52496;51.082;5.066;2022-08-19T12:26:23;8.02;;;4.15;;
65759;SDS011;52496;51.082;5.066;2022-08-19T12:28:54;7.22;;;4.32;;
65759;SDS011;52496;51.082;5.066;2022-08-19T12:31:25;7.05;;;4.05;;
65759;SDS011;52496;51.082;5.066;2022-08-19T12:33:58;7.20;;;4.28;;
65759;SDS011;52496;51.082;5.066;2022-08-19T12:36:29;8.65;;;4.13;;
65759;SDS011;52496;51.082;5.066;2022-08-19T12:38:59;9.60;;;3.97;;
65759;SDS011;52496;51.082;5.066;2022-08-19T12:41:29;6.68;;;4.10;;
65759;SDS011;52496;51.082;5.066;2022-08-19T12:44:00;7.05;;;4.20;;
65759;SDS011;52496;51.082;5.066;2022-08-19T12:46:30;7.75;;;4.13;;
65759;SDS011;52496;51.082;5.066;2022-08-19T12:49:01;5.60;;;3.72;;
65759;SDS011;52496;51.082;5.066;2022-08-19T12:51:31;8.85;;;4.13;;
65759;SDS011;52496;51.082;5.066;2022-08-19T12:54:02;7.30;;;4.03;;
65759;SDS011;52496;51.082;5.066;2022-08-19T12:56:33;9.20;;;3.90;;
65759;SDS011;52496;51.082;5.066;2022-08-19T12:59:04;7.07;;;3.75;;
65759;SDS011;52496;51.082;5.066;2022-08-19T13:01:34;7.38;;;3.92;;
65759;SDS011;52496;51.082;5.066;2022-08-19T13:04:05;8.20;;;4.20;;
65759;SDS011;52496;51.082;5.066;2022-08-19T13:06:35;10.32;;;4.18;;
65759;SDS011;52496;51.082;5.066;2022-08-19T13:09:06;7.10;;;3.33;;
65759;SDS011;52496;51.082;5.066;2022-08-19T13:11:37;7.47;;;3.70;;
65759;SDS011;52496;51.082;5.066;2022-08-19T13:14:07;7.22;;;3.45;;
65759;SDS011;52496;51.082;5.066;2022-08-19T13:16:38;8.27;;;3.42;;
65759;SDS011;52496;51.082;5.066;2022-08-19T13:19:08;7.18;;;3.00;;
65759;SDS011;52496;51.082;5.066;2022-08-19T13:21:39;5.85;;;2.92;;
65759;SDS011;52496;51.082;5.066;2022-08-19T13:24:09;5.55;;;3.05;;
65759;SDS011;52496;51.082;5.066;2022-08-19T13:26:40;5.97;;;3.20;;
65759;SDS011;52496;51.082;5.066;2022-08-19T13:29:10;5.43;;;2.92;;
65759;SDS011;52496;51.082;5.066;2022-08-19T13:31:59;4.18;;;2.63;;
65759;SDS011;52496;51.082;5.066;2022-08-19T13:34:48;4.70;;;2.40;;
65759;SDS011;52496;51.082;5.066;2022-08-19T13:37:19;5.50;;;2.45;;
65759;SDS011;52496;51.082;5.066;2022-08-19T13:40:11;5.93;;;2.78;;
65759;SDS011;52496;51.082;5.066;2022-08-19T13:42:48;6.57;;;2.67;;
65759;SDS011;52496;51.082;5.066;2022-08-19T13:45:21;5.93;;;2.78;;
65759;SDS011;52496;51.082;5.066;2022-08-19T13:47:54;5.15;;;2.67;;
65759;SDS011;52496;51.082;5.066;2022-08-19T13:50:27;6.45;;;2.97;;
65759;SDS011;52496;51.082;5.066;2022-08-19T13:52:59;6.43;;;2.80;;
65759;SDS011;52496;51.082;5.066;2022-08-19T13:55:31;4.18;;;2.47;;
65759;SDS011;52496;51.082;5.066;2022-08-19T13:58:01;4.32;;;2.40;;
65759;SDS011;52496;51.082;5.066;2022-08-19T14:00:34;5.90;;;2.42;;
65759;SDS011;52496;51.082;5.066;2022-08-19T14:03:07;3.65;;;2.33;;
65759;SDS011;52496;51.082;5.066;2022-08-19T14:05:37;4.75;;;2.38;;
65759;SDS011;52496;51.082;5.066;2022-08-19T14:08:08;4.15;;;2.38;;
65759;SDS011;52496;51.082;5.066;2022-08-19T14:10:39;6.05;;;2.20;;
65759;SDS011;52496;51.082;5.066;2022-08-19T14:13:12;4.15;;;2.28;;
65759;SDS011;52496;51.082;5.066;2022-08-19T14:15:45;3.60;;;2.20;;
65759;SDS011;52496;51.082;5.066;2022-08-19T14:18:17;3.33;;;1.92;;
65759;SDS011;52496;51.082;5.066;2022-08-19T14:20:48;3.60;;;2.17;;
65759;SDS011;52496;51.082;5.066;2022-08-19T14:23:19;4.80;;;2.40;;
65759;SDS011;52496;51.082;5.066;2022-08-19T14:25:49;5.00;;;2.47;;
65759;SDS011;52496;51.082;5.066;2022-08-19T14:28:20;3.88;;;2.40;;
65759;SDS011;52496;51.082;5.066;2022-08-19T14:30:50;4.70;;;2.50;;
65759;SDS011;52496;51.082;5.066;2022-08-19T14:33:22;5.28;;;2.95;;
65759;SDS011;52496;51.082;5.066;2022-08-19T14:35:53;4.93;;;2.53;;
65759;SDS011;52496;51.082;5.066;2022-08-19T14:38:23;5.03;;;2.67;;
65759;SDS011;52496;51.082;5.066;2022-08-19T14:40:53;4.72;;;2.30;;
65759;SDS011;52496;51.082;5.066;2022-08-19T14:43:24;5.50;;;2.60;;
65759;SDS011;52496;51.082;5.066;2022-08-19T14:45:54;6.20;;;2.85;;
65759;SDS011;52496;51.082;5.066;2022-08-19T14:48:26;5.97;;;3.03;;
65759;SDS011;52496;51.082;5.066;2022-08-19T14:50:57;4.78;;;2.72;;
65759;SDS011;52496;51.082;5.066;2022-08-19T14:53:27;4.18;;;2.20;;
65759;SDS011;52496;51.082;5.066;2022-08-19T14:55:58;7.47;;;3.20;;
65759;SDS011;52496;51.082;5.066;2022-08-19T14:58:29;6.55;;;3.38;;
65759;SDS011;52496;51.082;5.066;2022-08-19T15:01:00;5.63;;;2.63;;
65759;SDS011;52496;51.082;5.066;2022-08-19T15:03:31;6.18;;;3.13;;
65759;SDS011;52496;51.082;5.066;2022-08-19T15:06:02;8.88;;;3.13;;